createdAt,value
2018-06-25T00:00:01.509Z,14.20
2018-06-25T00:02:30.720Z,14.20
2018-06-25T00:04:59.843Z,14.20
2018-06-25T00:07:32.565Z,14.20
2018-06-25T00:10:01.701Z,14.20
2018-06-25T00:12:30.783Z,14.20
2018-06-25T00:14:59.902Z,14.20
2018-06-25T00:17:29.099Z,14.20
2018-06-25T00:19:58.290Z,14.20
2018-06-25T00:22:27.464Z,14.20
2018-06-25T00:24:56.694Z,14.20
2018-06-25T00:27:26.511Z,14.20
2018-06-25T00:29:55.672Z,14.20
2018-06-25T00:32:24.920Z,14.20
2018-06-25T00:34:54.035Z,14.10
2018-06-25T00:37:23.258Z,14.10
2018-06-25T00:42:21.075Z,14.20
2018-06-25T00:44:50.226Z,14.10
2018-06-25T00:47:19.436Z,14.10
2018-06-25T00:49:49.289Z,14.10
2018-06-25T00:52:18.459Z,14.10
2018-06-25T00:57:16.375Z,14.20
2018-06-25T00:59:54.149Z,14.20
2018-06-25T01:02:23.643Z,14.20
2018-06-25T01:04:52.780Z,14.20
2018-06-25T01:07:21.888Z,14.20
2018-06-25T01:09:51.161Z,14.20
2018-06-25T01:12:21.110Z,14.20
2018-06-25T01:14:50.236Z,14.20
2018-06-25T01:17:19.376Z,14.20
2018-06-25T01:19:48.532Z,14.20
2018-06-25T01:22:17.627Z,14.20
2018-06-25T01:24:47.531Z,14.20
2018-06-25T01:27:16.678Z,14.20
2018-06-25T01:29:45.811Z,14.20
2018-06-25T01:32:14.947Z,14.20
2018-06-25T01:34:44.069Z,14.20
2018-06-25T01:37:13.221Z,14.20
2018-06-25T01:39:42.332Z,14.20
2018-06-25T01:42:11.428Z,14.20
2018-06-25T01:44:40.653Z,14.20
2018-06-25T01:47:09.820Z,14.20
2018-06-25T01:49:39.556Z,14.20
2018-06-25T01:52:08.716Z,14.10
2018-06-25T01:54:37.817Z,14.10
2018-06-25T01:57:06.950Z,14.10
2018-06-25T01:59:36.059Z,14.10
2018-06-25T02:02:05.185Z,14.00
2018-06-25T02:04:34.429Z,14.00
2018-06-25T02:07:03.575Z,14.00
2018-06-25T02:09:32.838Z,14.00
2018-06-25T02:12:02.004Z,14.00
2018-06-25T02:14:31.694Z,13.90
2018-06-25T02:17:00.868Z,13.90
2018-06-25T02:19:30.032Z,13.90
2018-06-25T02:21:59.293Z,13.90
2018-06-25T02:24:28.496Z,13.90
2018-06-25T02:26:57.665Z,13.80
2018-06-25T02:29:26.763Z,13.80
2018-06-25T02:31:55.881Z,13.70
2018-06-25T02:34:25.665Z,13.70
2018-06-25T02:36:54.819Z,13.70
2018-06-25T02:39:23.932Z,13.60
2018-06-25T02:41:53.089Z,13.60
2018-06-25T02:44:22.265Z,13.60
2018-06-25T02:46:51.483Z,13.60
2018-06-25T02:49:20.688Z,13.70
2018-06-25T02:51:50.842Z,13.70
2018-06-25T02:54:20.078Z,13.80
2018-06-25T02:56:49.337Z,13.80
2018-06-25T02:59:18.539Z,13.80
2018-06-25T03:04:16.358Z,13.80
2018-06-25T03:06:45.477Z,13.80
2018-06-25T03:09:14.641Z,13.80
2018-06-25T03:11:43.764Z,13.80
2018-06-25T03:14:12.943Z,13.90
2018-06-25T03:16:42.159Z,13.80
2018-06-25T03:19:11.369Z,13.80
2018-06-25T03:21:41.158Z,13.80
2018-06-25T03:24:10.284Z,13.80
2018-06-25T03:26:39.449Z,13.80
2018-06-25T03:29:08.552Z,13.80
2018-06-25T03:31:37.620Z,13.80
2018-06-25T03:34:06.740Z,13.80
2018-06-25T03:36:35.904Z,13.80
2018-06-25T03:39:07.496Z,13.80
2018-06-25T03:41:36.653Z,13.80
2018-06-25T03:44:06.387Z,13.70
2018-06-25T03:46:35.598Z,13.60
2018-06-25T03:49:05.136Z,13.60
2018-06-25T03:51:34.260Z,13.60
2018-06-25T03:54:03.488Z,13.60
2018-06-25T03:56:32.700Z,13.50
2018-06-25T03:59:01.860Z,13.50
2018-06-25T04:01:31.119Z,13.50
2018-06-25T04:04:00.258Z,13.60
2018-06-25T04:06:29.477Z,13.70
2018-06-25T04:08:58.593Z,13.70
2018-06-25T04:11:27.714Z,13.80
2018-06-25T04:13:56.903Z,13.90
2018-06-25T04:16:26.066Z,13.90
2018-06-25T04:19:00.187Z,14.00
2018-06-25T04:21:29.327Z,14.10
2018-06-25T04:23:58.665Z,14.20
2018-06-25T04:26:27.835Z,14.30
2018-06-25T04:28:57.288Z,14.40
2018-06-25T04:31:26.681Z,14.50
2018-06-25T04:33:55.810Z,14.50
2018-06-25T04:36:24.942Z,14.60
2018-06-25T04:38:54.029Z,14.70
2018-06-25T04:41:23.146Z,14.70
2018-06-25T04:43:52.322Z,14.70
2018-06-25T04:46:21.415Z,14.70
2018-06-25T04:48:50.530Z,14.70
2018-06-25T04:51:19.720Z,14.70
2018-06-25T04:53:48.865Z,14.70
2018-06-25T04:56:17.987Z,14.70
2018-06-25T04:58:47.187Z,14.70
2018-06-25T05:01:16.407Z,14.70
2018-06-25T05:03:45.540Z,14.70
2018-06-25T05:06:14.732Z,14.80
2018-06-25T05:08:43.977Z,14.90
2018-06-25T05:11:13.108Z,14.90
2018-06-25T05:13:42.243Z,15.00
2018-06-25T05:16:11.432Z,15.00
2018-06-25T05:18:40.610Z,15.10
2018-06-25T05:23:38.446Z,15.00
2018-06-25T05:26:07.836Z,15.00
2018-06-25T05:28:36.995Z,14.90
2018-06-25T05:33:35.384Z,14.70
2018-06-25T05:36:04.550Z,14.70
2018-06-25T05:38:33.741Z,14.50
2018-06-25T05:41:02.916Z,14.60
2018-06-25T05:43:32.228Z,14.60
2018-06-25T05:46:01.418Z,14.70
2018-06-25T05:48:30.631Z,14.80
2018-06-25T05:53:28.706Z,14.80
2018-06-25T05:55:57.863Z,14.90
2018-06-25T05:58:26.948Z,15.00
2018-06-25T06:00:56.073Z,15.10
2018-06-25T06:03:25.323Z,15.20
2018-06-25T06:05:54.411Z,15.30
2018-06-25T06:08:23.536Z,15.30
2018-06-25T06:10:52.693Z,15.20
2018-06-25T06:13:21.808Z,15.20
2018-06-25T06:15:50.913Z,15.20
2018-06-25T06:18:20.064Z,15.20
2018-06-25T06:20:49.200Z,15.30
2018-06-25T06:23:18.344Z,15.50
2018-06-25T06:25:48.260Z,15.70
2018-06-25T06:28:17.404Z,15.70
2018-06-25T06:30:46.604Z,15.60
2018-06-25T06:33:15.786Z,15.60
2018-06-25T06:35:44.864Z,15.50
2018-06-25T06:38:14.020Z,15.50
2018-06-25T06:40:43.170Z,15.60
2018-06-25T06:43:12.306Z,15.60
2018-06-25T06:45:41.410Z,15.40
2018-06-25T06:48:11.461Z,15.30
2018-06-25T06:50:41.148Z,15.20
2018-06-25T06:53:10.290Z,15.40
2018-06-25T06:55:39.445Z,15.50
2018-06-25T06:58:08.626Z,15.40
2018-06-25T07:00:37.715Z,15.40
2018-06-25T07:03:06.973Z,15.30
2018-06-25T07:05:36.123Z,15.40
2018-06-25T07:08:05.399Z,15.50
2018-06-25T07:10:34.628Z,15.60
2018-06-25T07:13:03.731Z,15.80
2018-06-25T07:15:33.330Z,15.70
2018-06-25T07:18:02.541Z,15.70
2018-06-25T07:20:31.808Z,15.50
2018-06-25T07:23:01.070Z,15.60
2018-06-25T07:25:30.225Z,15.40
2018-06-25T07:27:59.366Z,15.50
2018-06-25T07:30:28.537Z,15.50
2018-06-25T07:32:57.767Z,15.60
2018-06-25T07:35:26.940Z,15.80
2018-06-25T07:37:56.029Z,16.10
2018-06-25T07:40:25.337Z,16.00
2018-06-25T07:42:54.600Z,16.10
2018-06-25T07:45:23.768Z,16.00
2018-06-25T07:47:53.006Z,16.10
2018-06-25T07:50:22.170Z,16.10
2018-06-25T07:52:51.380Z,16.00
2018-06-25T07:55:20.696Z,15.90
2018-06-25T07:57:49.836Z,15.80
2018-06-25T08:00:19.468Z,16.30
2018-06-25T08:02:48.740Z,16.40
2018-06-25T08:05:18.031Z,16.20
2018-06-25T08:07:47.280Z,16.20
2018-06-25T08:10:16.557Z,16.00
2018-06-25T08:12:45.734Z,16.10
2018-06-25T08:15:14.891Z,16.00
2018-06-25T08:17:44.049Z,16.20
2018-06-25T08:22:42.008Z,16.00
2018-06-25T08:25:11.155Z,15.80
2018-06-25T08:27:40.306Z,15.70
2018-06-25T08:30:09.475Z,16.00
2018-06-25T08:32:38.580Z,15.90
2018-06-25T08:35:07.997Z,16.00
2018-06-25T08:37:37.127Z,16.20
2018-06-25T08:40:06.343Z,16.30
2018-06-25T08:42:35.445Z,16.30
2018-06-25T08:45:04.706Z,16.30
2018-06-25T08:47:33.868Z,16.30
2018-06-25T08:50:02.996Z,16.40
2018-06-25T08:52:32.112Z,16.30
2018-06-25T08:55:01.284Z,16.20
2018-06-25T08:57:30.466Z,16.40
2018-06-25T08:59:59.721Z,16.40
2018-06-25T09:02:29.477Z,16.20
2018-06-25T09:04:58.628Z,16.00
2018-06-25T09:07:27.785Z,15.90
2018-06-25T09:09:57.083Z,15.90
2018-06-25T09:12:26.167Z,15.90
2018-06-25T09:14:55.356Z,16.20
2018-06-25T09:17:24.622Z,16.00
2018-06-25T09:19:53.792Z,16.10
2018-06-25T09:22:22.935Z,16.20
2018-06-25T09:24:52.040Z,16.30
2018-06-25T09:27:21.228Z,16.10
2018-06-25T09:29:50.426Z,16.20
2018-06-25T09:32:19.660Z,16.10
2018-06-25T09:34:49.719Z,16.30
2018-06-25T09:37:19.367Z,16.40
2018-06-25T09:39:49.295Z,16.40
2018-06-25T09:42:18.496Z,16.60
2018-06-25T09:44:47.736Z,16.90
2018-06-25T09:47:16.951Z,16.70
2018-06-25T09:49:46.090Z,16.60
2018-06-25T09:52:15.989Z,16.60
2018-06-25T09:54:45.772Z,16.90
2018-06-25T09:57:14.923Z,17.00
2018-06-25T09:59:44.041Z,17.10
2018-06-25T10:02:13.197Z,16.80
2018-06-25T10:04:42.443Z,17.10
2018-06-25T10:07:11.756Z,17.10
2018-06-25T10:09:40.950Z,16.90
2018-06-25T10:12:10.269Z,16.80
2018-06-25T10:14:39.384Z,16.60
2018-06-25T10:17:11.384Z,16.60
2018-06-25T10:19:40.551Z,16.60
2018-06-25T10:22:09.644Z,16.60
2018-06-25T10:24:38.792Z,16.80
2018-06-25T10:27:08.714Z,16.60
2018-06-25T10:32:06.857Z,16.40
2018-06-25T10:34:35.961Z,16.90
2018-06-25T10:37:05.091Z,17.20
2018-06-25T10:39:34.206Z,16.80
2018-06-25T10:42:03.425Z,17.20
2018-06-25T10:44:32.567Z,17.10
2018-06-25T10:47:01.701Z,17.40
2018-06-25T10:49:30.856Z,17.30
2018-06-25T10:51:59.965Z,17.30
2018-06-25T10:54:29.207Z,17.10
2018-06-25T10:56:58.338Z,17.30
2018-06-25T10:59:27.635Z,17.40
2018-06-25T11:01:56.669Z,17.50
2018-06-25T11:04:25.755Z,17.40
2018-06-25T11:06:55.460Z,17.30
2018-06-25T11:09:24.981Z,17.10
2018-06-25T11:11:54.117Z,17.20
2018-06-25T11:14:23.231Z,17.20
2018-06-25T11:16:52.411Z,17.30
2018-06-25T11:19:21.508Z,17.10
2018-06-25T11:21:50.681Z,17.00
2018-06-25T11:26:48.687Z,16.80
2018-06-25T11:29:17.770Z,16.90
2018-06-25T11:31:46.874Z,17.00
2018-06-25T11:34:16.065Z,17.10
2018-06-25T11:36:45.225Z,17.30
2018-06-25T11:39:14.484Z,17.50
2018-06-25T11:41:43.648Z,17.30
2018-06-25T11:44:12.766Z,17.20
2018-06-25T11:46:42.124Z,17.00
2018-06-25T11:49:11.286Z,16.90
2018-06-25T11:51:40.537Z,17.10
2018-06-25T11:54:09.620Z,17.00
2018-06-25T11:56:38.724Z,16.70
2018-06-25T11:59:08.581Z,16.30
2018-06-25T12:01:40.937Z,16.30
2018-06-25T12:04:10.056Z,16.20
2018-06-25T12:06:39.373Z,16.00
2018-06-25T12:09:09.544Z,16.00
2018-06-25T12:11:47.009Z,16.30
2018-06-25T12:14:16.360Z,16.40
2018-06-25T12:16:45.424Z,16.80
2018-06-25T12:19:14.567Z,16.90
2018-06-25T12:21:43.779Z,17.00
2018-06-25T12:24:12.971Z,17.40
2018-06-25T12:26:42.125Z,16.80
2018-06-25T12:29:11.298Z,16.80
2018-06-25T12:31:41.221Z,17.00
2018-06-25T12:34:10.407Z,17.20
2018-06-25T12:36:39.644Z,17.40
2018-06-25T12:39:09.873Z,17.30
2018-06-25T12:41:39.086Z,17.10
2018-06-25T12:44:08.797Z,17.30
2018-06-25T12:46:38.805Z,17.50
2018-06-25T12:49:07.959Z,17.30
2018-06-25T12:51:37.181Z,17.70
2018-06-25T12:54:06.296Z,17.70
2018-06-25T12:56:35.502Z,17.70
2018-06-25T12:59:04.641Z,17.70
2018-06-25T13:01:34.785Z,17.90
2018-06-25T13:04:03.821Z,17.90
2018-06-25T13:06:32.982Z,17.90
2018-06-25T13:09:02.128Z,17.90
2018-06-25T13:11:31.357Z,17.30
2018-06-25T13:14:00.552Z,17.40
2018-06-25T13:16:29.700Z,18.10
2018-06-25T13:18:58.844Z,17.80
2018-06-25T13:21:27.942Z,17.60
2018-06-25T13:23:57.140Z,17.30
2018-06-25T13:26:27.113Z,17.50
2018-06-25T13:28:56.288Z,17.50
2018-06-25T13:33:54.132Z,17.40
2018-06-25T13:36:24.056Z,17.40
2018-06-25T13:38:53.254Z,17.50
2018-06-25T13:41:22.465Z,17.40
2018-06-25T13:43:51.505Z,17.40
2018-06-25T13:46:20.817Z,17.20
2018-06-25T13:48:49.980Z,17.20
2018-06-25T13:51:19.225Z,17.20
2018-06-25T13:53:48.496Z,17.30
2018-06-25T13:56:17.695Z,17.10
2018-06-25T13:58:47.515Z,17.30
2018-06-25T14:01:16.702Z,17.20
2018-06-25T14:03:45.857Z,17.00
2018-06-25T14:06:14.983Z,17.20
2018-06-25T14:08:44.173Z,16.70
2018-06-25T14:11:13.421Z,16.90
2018-06-25T14:13:42.781Z,16.80
2018-06-25T14:16:11.977Z,16.80
2018-06-25T14:18:41.266Z,16.80
2018-06-25T14:21:10.420Z,16.70
2018-06-25T14:23:43.764Z,17.10
2018-06-25T14:26:12.957Z,17.20
2018-06-25T14:28:42.156Z,17.00
2018-06-25T14:31:16.753Z,17.10
2018-06-25T14:33:51.304Z,17.00
2018-06-25T14:36:20.358Z,16.70
2018-06-25T14:38:52.397Z,16.70
2018-06-25T14:41:21.747Z,16.30
2018-06-25T14:43:50.907Z,16.00
2018-06-25T14:46:20.081Z,15.90
2018-06-25T14:48:49.265Z,16.00
2018-06-25T14:51:18.426Z,16.10
2018-06-25T14:53:47.656Z,16.20
2018-06-25T14:56:16.789Z,16.10
2018-06-25T15:01:17.349Z,16.10
2018-06-25T15:03:46.506Z,16.30
2018-06-25T15:06:16.193Z,16.10
2018-06-25T15:08:45.406Z,16.30
2018-06-25T15:11:14.616Z,16.10
2018-06-25T15:13:43.774Z,15.80
2018-06-25T15:16:13.142Z,15.60
2018-06-25T15:18:42.301Z,15.90
2018-06-25T15:21:11.421Z,15.80
2018-06-25T15:23:40.807Z,16.00
2018-06-25T15:26:09.892Z,15.90
2018-06-25T15:28:39.100Z,16.10
2018-06-25T15:31:08.256Z,15.90
2018-06-25T15:33:37.339Z,16.00
2018-06-25T15:36:06.528Z,16.10
2018-06-25T15:38:35.709Z,15.80
2018-06-25T15:41:04.880Z,15.70
2018-06-25T15:43:34.626Z,15.90
2018-06-25T15:46:03.943Z,15.80
2018-06-25T15:48:33.153Z,15.90
2018-06-25T15:51:02.338Z,15.90
2018-06-25T15:53:31.489Z,16.60
2018-06-25T15:56:00.609Z,16.60
2018-06-25T15:58:29.721Z,16.70
2018-06-25T16:00:58.923Z,16.60
2018-06-25T16:03:28.086Z,16.60
2018-06-25T16:05:57.338Z,17.70
2018-06-25T16:08:26.682Z,17.40
2018-06-25T16:10:55.949Z,16.80
2018-06-25T16:13:25.263Z,16.60
2018-06-25T16:15:54.601Z,18.00
2018-06-25T16:18:23.883Z,18.10
2018-06-25T16:20:54.212Z,17.70
2018-06-25T16:23:23.375Z,17.80
2018-06-25T16:25:52.497Z,17.70
2018-06-25T16:28:21.741Z,17.20
2018-06-25T16:30:50.973Z,17.10
2018-06-25T16:33:20.217Z,17.10
2018-06-25T16:35:49.532Z,16.80
2018-06-25T16:38:18.653Z,16.60
2018-06-25T16:40:48.215Z,16.30
2018-06-25T16:43:17.317Z,16.20
2018-06-25T16:45:47.286Z,16.30
2018-06-25T16:48:16.432Z,16.10
2018-06-25T16:50:45.556Z,16.40
2018-06-25T16:53:14.673Z,16.50
2018-06-25T16:55:43.804Z,16.30
2018-06-25T16:58:13.789Z,16.30
2018-06-25T17:00:42.963Z,16.20
2018-06-25T17:03:12.100Z,16.10
2018-06-25T17:05:41.330Z,15.90
2018-06-25T17:08:10.482Z,16.50
2018-06-25T17:10:39.650Z,17.10
2018-06-25T17:13:08.766Z,16.40
2018-06-25T17:15:37.956Z,16.20
2018-06-25T17:20:35.858Z,15.70
2018-06-25T17:23:05.041Z,15.70
2018-06-25T17:25:34.167Z,15.60
2018-06-25T17:28:03.436Z,15.60
2018-06-25T17:30:32.570Z,15.60
2018-06-25T17:33:01.836Z,15.60
2018-06-25T17:35:30.987Z,15.60
2018-06-25T17:38:00.101Z,15.60
2018-06-25T17:40:29.275Z,15.60
2018-06-25T17:42:58.433Z,15.60
2018-06-25T17:45:28.704Z,15.60
2018-06-25T17:47:57.841Z,15.40
2018-06-25T17:50:27.312Z,15.40
2018-06-25T17:52:56.416Z,15.30
2018-06-25T17:55:25.583Z,16.10
2018-06-25T17:57:54.687Z,15.50
2018-06-25T18:00:24.199Z,15.20
2018-06-25T18:02:53.376Z,15.40
2018-06-25T18:05:22.511Z,14.90
2018-06-25T18:07:51.684Z,15.10
2018-06-25T18:10:20.864Z,16.20
2018-06-25T18:12:50.070Z,15.30
2018-06-25T18:15:19.321Z,15.00
2018-06-25T18:17:48.459Z,15.00
2018-06-25T18:20:18.279Z,15.10
2018-06-25T18:22:47.886Z,14.80
2018-06-25T18:25:17.175Z,14.90
2018-06-25T18:27:47.191Z,14.90
2018-06-25T18:30:16.357Z,14.80
2018-06-25T18:32:45.531Z,14.80
2018-06-25T18:35:14.705Z,14.80
2018-06-25T18:37:44.570Z,14.90
2018-06-25T18:40:13.803Z,14.80
2018-06-25T18:42:43.004Z,14.70
2018-06-25T18:45:12.226Z,14.60
2018-06-25T18:47:41.397Z,14.60
2018-06-25T18:50:10.555Z,14.50
2018-06-25T18:52:39.709Z,14.40
2018-06-25T18:55:08.859Z,14.40
2018-06-25T18:57:38.020Z,14.40
2018-06-25T19:00:08.747Z,14.40
2018-06-25T19:02:37.874Z,14.30
2018-06-25T19:05:07.303Z,14.30
2018-06-25T19:07:37.142Z,14.20
2018-06-25T19:10:06.300Z,14.20
2018-06-25T19:12:35.458Z,14.20
2018-06-25T19:15:05.264Z,14.10
2018-06-25T19:17:34.425Z,14.10
2018-06-25T19:22:32.288Z,14.20
2018-06-25T19:25:01.477Z,14.20
2018-06-25T19:27:30.683Z,14.10
2018-06-25T19:29:59.851Z,14.10
2018-06-25T19:32:29.092Z,14.10
2018-06-25T19:34:58.324Z,14.10
2018-06-25T19:37:27.517Z,14.10
2018-06-25T19:39:56.705Z,14.00
2018-06-25T19:42:25.999Z,13.90
2018-06-25T19:44:55.851Z,13.90
2018-06-25T19:47:25.642Z,13.80
2018-06-25T19:49:54.831Z,13.80
2018-06-25T19:52:24.059Z,13.80
2018-06-25T19:54:53.193Z,13.80
2018-06-25T19:57:22.349Z,13.80
2018-06-25T19:59:51.552Z,13.80
2018-06-25T20:02:20.755Z,13.80
2018-06-25T20:04:49.931Z,13.80
2018-06-25T20:07:19.754Z,13.80
2018-06-25T20:09:48.927Z,13.80
2018-06-25T20:12:18.078Z,13.70
2018-06-25T20:14:47.354Z,13.70
2018-06-25T20:17:16.416Z,13.60
2018-06-25T20:19:45.719Z,13.60
2018-06-25T20:22:14.788Z,13.60
2018-06-25T20:24:43.919Z,13.60
2018-06-25T20:27:13.558Z,13.60
2018-06-25T20:29:43.476Z,13.70
2018-06-25T20:32:12.685Z,13.70
2018-06-25T20:34:41.874Z,13.70
2018-06-25T20:37:11.101Z,13.60
2018-06-25T20:39:40.288Z,13.60
2018-06-25T20:42:09.574Z,13.60
2018-06-25T20:44:38.725Z,13.60
2018-06-25T20:49:36.581Z,13.60
2018-06-25T20:52:05.787Z,13.60
2018-06-25T20:54:35.041Z,13.60
2018-06-25T20:57:04.264Z,13.60
2018-06-25T20:59:33.417Z,13.50
2018-06-25T21:02:02.642Z,13.50
2018-06-25T21:04:31.872Z,13.50
2018-06-25T21:07:01.245Z,13.50
2018-06-25T21:09:30.397Z,13.50
2018-06-25T21:14:28.279Z,13.60
2018-06-25T21:16:57.499Z,13.60
2018-06-25T21:19:26.586Z,13.50
2018-06-25T21:21:55.831Z,13.60
2018-06-25T21:24:24.917Z,13.60
2018-06-25T21:26:54.002Z,13.60
2018-06-25T21:29:23.227Z,13.50
2018-06-25T21:31:52.404Z,13.40
2018-06-25T21:34:21.532Z,13.50
2018-06-25T21:36:50.721Z,13.50
2018-06-25T21:39:19.885Z,13.50
2018-06-25T21:41:49.026Z,13.50
2018-06-25T21:44:18.149Z,13.50
2018-06-25T21:49:16.059Z,13.50
2018-06-25T21:51:45.242Z,13.50
2018-06-25T21:54:14.331Z,13.50
2018-06-25T21:56:43.496Z,13.50
2018-06-25T21:59:12.646Z,13.40
2018-06-25T22:01:41.859Z,13.30
2018-06-25T22:04:10.987Z,13.20
2018-06-25T22:06:40.091Z,13.20
2018-06-25T22:09:10.144Z,13.20
2018-06-25T22:11:39.284Z,13.30
2018-06-25T22:14:09.501Z,13.30
2018-06-25T22:16:38.693Z,13.40
2018-06-25T22:19:07.841Z,13.40
2018-06-25T22:21:36.927Z,13.40
2018-06-25T22:24:06.524Z,13.40
2018-06-25T22:26:35.703Z,13.40
2018-06-25T22:29:05.049Z,13.40
2018-06-25T22:31:34.349Z,13.40
2018-06-25T22:39:00.959Z,13.40
2018-06-25T22:41:30.072Z,13.40
2018-06-25T22:44:10.188Z,13.40
2018-06-25T22:46:40.417Z,13.40
2018-06-25T22:49:10.124Z,13.30
2018-06-25T22:51:39.235Z,13.30
2018-06-25T22:54:08.636Z,13.30
2018-06-25T22:56:37.819Z,13.30
2018-06-25T22:59:07.275Z,13.30
2018-06-25T23:01:36.412Z,13.30
2018-06-25T23:04:05.674Z,13.30
2018-06-25T23:06:34.796Z,13.30
2018-06-25T23:09:06.036Z,13.20
2018-06-25T23:11:35.128Z,13.30
2018-06-25T23:14:04.733Z,13.30
2018-06-25T23:16:34.070Z,13.40
2018-06-25T23:19:03.233Z,13.40
2018-06-25T23:21:32.369Z,13.40
2018-06-25T23:24:01.464Z,13.40
2018-06-25T23:26:30.615Z,13.40
2018-06-25T23:28:59.749Z,13.40
2018-06-25T23:31:28.840Z,13.40
2018-06-25T23:33:57.946Z,13.30
2018-06-25T23:36:27.132Z,13.30
2018-06-25T23:38:56.823Z,13.20
2018-06-25T23:41:28.969Z,13.10
2018-06-25T23:43:58.097Z,13.10
2018-06-25T23:46:27.314Z,13.10
2018-06-25T23:51:25.116Z,13.10
2018-06-25T23:53:54.281Z,13.00
2018-06-25T23:56:23.601Z,12.90
2018-06-25T23:58:53.009Z,12.80
